sensor_id;sensor_type;location;lat;lon;timestamp;P1;durP1;ratioP1;P2;durP2;ratioP2
77409;SDS011;66481;51.332;22.804;2023-07-28T00:03:17;4.57;;;4.05;;
77409;SDS011;66481;51.332;22.804;2023-07-28T00:07:18;8.73;;;4.00;;
77409;SDS011;66481;51.332;22.804;2023-07-28T00:11:19;4.63;;;4.10;;
77409;SDS011;66481;51.332;22.804;2023-07-28T00:15:20;5.38;;;4.28;;
77409;SDS011;66481;51.332;22.804;2023-07-28T00:19:21;5.07;;;4.47;;
77409;SDS011;66481;51.332;22.804;2023-07-28T00:23:21;8.15;;;4.50;;
77409;SDS011;66481;51.332;22.804;2023-07-28T00:27:22;6.10;;;4.55;;
77409;SDS011;66481;51.332;22.804;2023-07-28T00:31:23;5.78;;;5.00;;
77409;SDS011;66481;51.332;22.804;2023-07-28T00:35:24;5.43;;;4.57;;
77409;SDS011;66481;51.332;22.804;2023-07-28T00:39:25;6.53;;;4.72;;
77409;SDS011;66481;51.332;22.804;2023-07-28T00:43:26;4.93;;;4.38;;
77409;SDS011;66481;51.332;22.804;2023-07-28T00:47:27;6.57;;;4.70;;
77409;SDS011;66481;51.332;22.804;2023-07-28T00:51:28;5.00;;;4.43;;
77409;SDS011;66481;51.332;22.804;2023-07-28T00:55:29;6.10;;;4.93;;
77409;SDS011;66481;51.332;22.804;2023-07-28T00:59:30;6.13;;;4.40;;
77409;SDS011;66481;51.332;22.804;2023-07-28T01:03:31;7.43;;;5.03;;
77409;SDS011;66481;51.332;22.804;2023-07-28T01:07:36;7.43;;;4.43;;
77409;SDS011;66481;51.332;22.804;2023-07-28T01:11:56;8.25;;;4.93;;
77409;SDS011;66481;51.332;22.804;2023-07-28T01:15:58;6.65;;;4.72;;
77409;SDS011;66481;51.332;22.804;2023-07-28T01:20:01;5.75;;;4.97;;
77409;SDS011;66481;51.332;22.804;2023-07-28T01:28:10;10.27;;;5.50;;
77409;SDS011;66481;51.332;22.804;2023-07-28T01:32:13;7.15;;;5.32;;
77409;SDS011;66481;51.332;22.804;2023-07-28T01:36:14;7.65;;;5.97;;
77409;SDS011;66481;51.332;22.804;2023-07-28T01:40:19;9.90;;;6.97;;
77409;SDS011;66481;51.332;22.804;2023-07-28T01:44:20;9.15;;;6.20;;
77409;SDS011;66481;51.332;22.804;2023-07-28T01:48:21;9.15;;;6.03;;
77409;SDS011;66481;51.332;22.804;2023-07-28T01:52:22;7.03;;;6.10;;
77409;SDS011;66481;51.332;22.804;2023-07-28T01:56:23;7.18;;;5.78;;
77409;SDS011;66481;51.332;22.804;2023-07-28T02:00:24;6.95;;;5.57;;
77409;SDS011;66481;51.332;22.804;2023-07-28T02:04:25;7.97;;;5.93;;
77409;SDS011;66481;51.332;22.804;2023-07-28T02:08:27;9.23;;;6.68;;
77409;SDS011;66481;51.332;22.804;2023-07-28T02:12:28;10.48;;;6.68;;
77409;SDS011;66481;51.332;22.804;2023-07-28T02:16:29;9.20;;;6.43;;
77409;SDS011;66481;51.332;22.804;2023-07-28T02:20:32;9.23;;;6.10;;
77409;SDS011;66481;51.332;22.804;2023-07-28T02:24:34;8.52;;;6.25;;
77409;SDS011;66481;51.332;22.804;2023-07-28T02:28:35;11.23;;;6.07;;
77409;SDS011;66481;51.332;22.804;2023-07-28T02:32:36;10.70;;;5.90;;
77409;SDS011;66481;51.332;22.804;2023-07-28T02:36:37;8.55;;;5.95;;
77409;SDS011;66481;51.332;22.804;2023-07-28T02:40:38;9.85;;;5.70;;
77409;SDS011;66481;51.332;22.804;2023-07-28T02:44:39;11.70;;;5.95;;
77409;SDS011;66481;51.332;22.804;2023-07-28T02:48:40;9.45;;;5.72;;
77409;SDS011;66481;51.332;22.804;2023-07-28T02:52:41;11.30;;;6.20;;
77409;SDS011;66481;51.332;22.804;2023-07-28T02:56:42;9.15;;;6.15;;
77409;SDS011;66481;51.332;22.804;2023-07-28T03:00:43;9.43;;;6.30;;
77409;SDS011;66481;51.332;22.804;2023-07-28T03:04:47;9.82;;;5.78;;
77409;SDS011;66481;51.332;22.804;2023-07-28T03:08:48;8.48;;;5.57;;
77409;SDS011;66481;51.332;22.804;2023-07-28T03:12:48;9.73;;;6.10;;
77409;SDS011;66481;51.332;22.804;2023-07-28T03:16:49;10.85;;;5.95;;
77409;SDS011;66481;51.332;22.804;2023-07-28T03:20:50;7.55;;;5.10;;
77409;SDS011;66481;51.332;22.804;2023-07-28T03:24:51;10.85;;;5.35;;
77409;SDS011;66481;51.332;22.804;2023-07-28T03:28:52;8.50;;;5.93;;
77409;SDS011;66481;51.332;22.804;2023-07-28T03:32:53;9.07;;;4.70;;
77409;SDS011;66481;51.332;22.804;2023-07-28T03:36:54;8.20;;;4.72;;
77409;SDS011;66481;51.332;22.804;2023-07-28T03:40:55;7.30;;;5.00;;
77409;SDS011;66481;51.332;22.804;2023-07-28T03:44:56;8.25;;;5.30;;
77409;SDS011;66481;51.332;22.804;2023-07-28T03:48:57;9.18;;;5.25;;
77409;SDS011;66481;51.332;22.804;2023-07-28T03:52:59;8.57;;;5.40;;
77409;SDS011;66481;51.332;22.804;2023-07-28T03:57:00;6.97;;;4.53;;
77409;SDS011;66481;51.332;22.804;2023-07-28T04:01:00;7.25;;;4.68;;
77409;SDS011;66481;51.332;22.804;2023-07-28T04:05:01;5.97;;;4.50;;
77409;SDS011;66481;51.332;22.804;2023-07-28T04:09:02;6.07;;;4.68;;
77409;SDS011;66481;51.332;22.804;2023-07-28T04:13:03;5.82;;;4.03;;
77409;SDS011;66481;51.332;22.804;2023-07-28T04:17:04;5.90;;;3.90;;
77409;SDS011;66481;51.332;22.804;2023-07-28T04:21:05;6.78;;;4.20;;
77409;SDS011;66481;51.332;22.804;2023-07-28T04:25:07;6.20;;;4.55;;
77409;SDS011;66481;51.332;22.804;2023-07-28T04:29:08;7.40;;;4.65;;
77409;SDS011;66481;51.332;22.804;2023-07-28T04:33:09;6.45;;;4.47;;
77409;SDS011;66481;51.332;22.804;2023-07-28T04:37:10;4.78;;;4.28;;
77409;SDS011;66481;51.332;22.804;2023-07-28T04:41:11;5.75;;;4.28;;
77409;SDS011;66481;51.332;22.804;2023-07-28T04:45:12;4.90;;;4.40;;
77409;SDS011;66481;51.332;22.804;2023-07-28T04:49:13;5.28;;;4.10;;
77409;SDS011;66481;51.332;22.804;2023-07-28T04:53:14;5.95;;;4.18;;
77409;SDS011;66481;51.332;22.804;2023-07-28T04:57:15;8.40;;;4.50;;
77409;SDS011;66481;51.332;22.804;2023-07-28T05:01:18;10.02;;;4.68;;
77409;SDS011;66481;51.332;22.804;2023-07-28T05:05:19;6.22;;;3.67;;
77409;SDS011;66481;51.332;22.804;2023-07-28T05:09:20;6.05;;;4.72;;
77409;SDS011;66481;51.332;22.804;2023-07-28T05:13:21;7.35;;;4.25;;
77409;SDS011;66481;51.332;22.804;2023-07-28T05:17:22;5.70;;;3.38;;
77409;SDS011;66481;51.332;22.804;2023-07-28T05:21:23;6.30;;;3.97;;
77409;SDS011;66481;51.332;22.804;2023-07-28T05:25:25;4.72;;;3.28;;
77409;SDS011;66481;51.332;22.804;2023-07-28T05:29:26;4.90;;;3.38;;
77409;SDS011;66481;51.332;22.804;2023-07-28T05:33:27;3.78;;;2.95;;
77409;SDS011;66481;51.332;22.804;2023-07-28T05:37:28;4.47;;;3.40;;
77409;SDS011;66481;51.332;22.804;2023-07-28T05:41:29;5.13;;;2.85;;
77409;SDS011;66481;51.332;22.804;2023-07-28T05:45:30;3.85;;;2.92;;
77409;SDS011;66481;51.332;22.804;2023-07-28T05:49:31;3.55;;;2.85;;
77409;SDS011;66481;51.332;22.804;2023-07-28T05:53:32;4.25;;;3.15;;
77409;SDS011;66481;51.332;22.804;2023-07-28T05:57:33;3.13;;;2.35;;
77409;SDS011;66481;51.332;22.804;2023-07-28T06:01:34;4.45;;;3.35;;
77409;SDS011;66481;51.332;22.804;2023-07-28T06:05:35;3.53;;;2.53;;
77409;SDS011;66481;51.332;22.804;2023-07-28T06:09:37;5.45;;;3.10;;
77409;SDS011;66481;51.332;22.804;2023-07-28T06:13:38;5.05;;;3.08;;
77409;SDS011;66481;51.332;22.804;2023-07-28T06:17:39;4.85;;;2.90;;
77409;SDS011;66481;51.332;22.804;2023-07-28T06:21:40;5.57;;;2.63;;
77409;SDS011;66481;51.332;22.804;2023-07-28T06:25:41;6.45;;;2.97;;
77409;SDS011;66481;51.332;22.804;2023-07-28T06:29:46;3.35;;;2.55;;
77409;SDS011;66481;51.332;22.804;2023-07-28T06:33:47;3.30;;;2.65;;
77409;SDS011;66481;51.332;22.804;2023-07-28T06:37:48;5.68;;;3.58;;
77409;SDS011;66481;51.332;22.804;2023-07-28T06:41:49;4.47;;;2.45;;
77409;SDS011;66481;51.332;22.804;2023-07-28T06:45:50;4.30;;;2.53;;
77409;SDS011;66481;51.332;22.804;2023-07-28T06:49:52;4.50;;;2.72;;
77409;SDS011;66481;51.332;22.804;2023-07-28T06:53:53;3.58;;;2.72;;
77409;SDS011;66481;51.332;22.804;2023-07-28T06:57:54;4.68;;;2.50;;
77409;SDS011;66481;51.332;22.804;2023-07-28T07:01:55;3.97;;;2.58;;
77409;SDS011;66481;51.332;22.804;2023-07-28T07:05:56;3.40;;;2.40;;
77409;SDS011;66481;51.332;22.804;2023-07-28T07:09:57;4.57;;;2.30;;
77409;SDS011;66481;51.332;22.804;2023-07-28T07:13:59;5.47;;;2.67;;
77409;SDS011;66481;51.332;22.804;2023-07-28T07:18:00;3.40;;;2.63;;
77409;SDS011;66481;51.332;22.804;2023-07-28T07:22:01;6.13;;;2.33;;
77409;SDS011;66481;51.332;22.804;2023-07-28T07:26:03;4.22;;;2.63;;
77409;SDS011;66481;51.332;22.804;2023-07-28T07:30:05;3.22;;;2.60;;
77409;SDS011;66481;51.332;22.804;2023-07-28T07:34:06;3.70;;;2.15;;
77409;SDS011;66481;51.332;22.804;2023-07-28T07:38:07;2.97;;;2.25;;
77409;SDS011;66481;51.332;22.804;2023-07-28T07:42:09;4.63;;;2.53;;
77409;SDS011;66481;51.332;22.804;2023-07-28T07:46:12;4.72;;;2.67;;
77409;SDS011;66481;51.332;22.804;2023-07-28T07:50:13;3.05;;;2.15;;
77409;SDS011;66481;51.332;22.804;2023-07-28T07:54:15;4.38;;;2.35;;
77409;SDS011;66481;51.332;22.804;2023-07-28T07:58:18;3.35;;;2.22;;
77409;SDS011;66481;51.332;22.804;2023-07-28T08:02:19;4.00;;;2.08;;
77409;SDS011;66481;51.332;22.804;2023-07-28T08:06:20;3.45;;;2.22;;
77409;SDS011;66481;51.332;22.804;2023-07-28T08:10:21;5.47;;;2.92;;
77409;SDS011;66481;51.332;22.804;2023-07-28T08:14:23;4.80;;;2.67;;
77409;SDS011;66481;51.332;22.804;2023-07-28T08:18:23;2.90;;;1.95;;
77409;SDS011;66481;51.332;22.804;2023-07-28T08:22:24;3.95;;;2.20;;
77409;SDS011;66481;51.332;22.804;2023-07-28T08:26:26;2.33;;;1.90;;
77409;SDS011;66481;51.332;22.804;2023-07-28T08:30:27;4.03;;;2.50;;
77409;SDS011;66481;51.332;22.804;2023-07-28T08:34:28;4.10;;;2.38;;
77409;SDS011;66481;51.332;22.804;2023-07-28T08:38:29;3.22;;;1.90;;
77409;SDS011;66481;51.332;22.804;2023-07-28T08:42:30;2.80;;;1.75;;
77409;SDS011;66481;51.332;22.804;2023-07-28T08:46:35;3.25;;;2.10;;
77409;SDS011;66481;51.332;22.804;2023-07-28T08:50:36;3.50;;;2.28;;
77409;SDS011;66481;51.332;22.804;2023-07-28T08:54:37;4.18;;;2.30;;
77409;SDS011;66481;51.332;22.804;2023-07-28T08:58:38;4.80;;;2.50;;
77409;SDS011;66481;51.332;22.804;2023-07-28T09:02:41;3.42;;;2.38;;
77409;SDS011;66481;51.332;22.804;2023-07-28T09:06:46;2.88;;;2.05;;
77409;SDS011;66481;51.332;22.804;2023-07-28T09:10:48;4.70;;;2.60;;
77409;SDS011;66481;51.332;22.804;2023-07-28T09:14:53;2.80;;;2.33;;
77409;SDS011;66481;51.332;22.804;2023-07-28T09:19:06;4.57;;;2.50;;
77409;SDS011;66481;51.332;22.804;2023-07-28T09:23:08;4.80;;;2.60;;
77409;SDS011;66481;51.332;22.804;2023-07-28T09:27:18;3.20;;;2.30;;
77409;SDS011;66481;51.332;22.804;2023-07-28T09:31:28;5.65;;;3.13;;
77409;SDS011;66481;51.332;22.804;2023-07-28T09:35:31;3.80;;;2.80;;
77409;SDS011;66481;51.332;22.804;2023-07-28T09:39:33;3.97;;;2.60;;
77409;SDS011;66481;51.332;22.804;2023-07-28T09:43:36;4.47;;;3.13;;
77409;SDS011;66481;51.332;22.804;2023-07-28T09:47:38;5.70;;;2.90;;
77409;SDS011;66481;51.332;22.804;2023-07-28T09:51:39;4.38;;;2.70;;
77409;SDS011;66481;51.332;22.804;2023-07-28T09:55:42;3.90;;;2.65;;
77409;SDS011;66481;51.332;22.804;2023-07-28T09:59:45;4.85;;;3.08;;
77409;SDS011;66481;51.332;22.804;2023-07-28T10:03:49;4.43;;;3.20;;
77409;SDS011;66481;51.332;22.804;2023-07-28T10:07:51;6.18;;;3.42;;
77409;SDS011;66481;51.332;22.804;2023-07-28T10:11:52;5.78;;;3.35;;
77409;SDS011;66481;51.332;22.804;2023-07-28T10:15:54;5.20;;;2.80;;
77409;SDS011;66481;51.332;22.804;2023-07-28T10:19:55;3.40;;;2.80;;
77409;SDS011;66481;51.332;22.804;2023-07-28T10:23:58;3.30;;;2.63;;
77409;SDS011;66481;51.332;22.804;2023-07-28T10:28:00;6.50;;;3.10;;
77409;SDS011;66481;51.332;22.804;2023-07-28T10:32:03;4.55;;;3.30;;
77409;SDS011;66481;51.332;22.804;2023-07-28T10:44:31;3.22;;;2.38;;
77409;SDS011;66481;51.332;22.804;2023-07-28T10:48:33;4.13;;;3.00;;
77409;SDS011;66481;51.332;22.804;2023-07-28T10:52:43;4.15;;;2.97;;
77409;SDS011;66481;51.332;22.804;2023-07-28T10:56:45;4.85;;;3.20;;
77409;SDS011;66481;51.332;22.804;2023-07-28T11:00:50;4.78;;;2.88;;
77409;SDS011;66481;51.332;22.804;2023-07-28T11:04:52;3.83;;;2.80;;
77409;SDS011;66481;51.332;22.804;2023-07-28T11:08:54;3.45;;;2.92;;
77409;SDS011;66481;51.332;22.804;2023-07-28T11:12:57;4.07;;;3.10;;
77409;SDS011;66481;51.332;22.804;2023-07-28T11:16:59;4.85;;;2.95;;
77409;SDS011;66481;51.332;22.804;2023-07-28T11:21:02;4.22;;;2.95;;
77409;SDS011;66481;51.332;22.804;2023-07-28T11:25:05;4.35;;;3.20;;
77409;SDS011;66481;51.332;22.804;2023-07-28T11:29:10;3.83;;;3.05;;
77409;SDS011;66481;51.332;22.804;2023-07-28T11:33:12;3.60;;;3.05;;
77409;SDS011;66481;51.332;22.804;2023-07-28T11:37:13;5.50;;;3.28;;
77409;SDS011;66481;51.332;22.804;2023-07-28T11:41:14;6.10;;;3.65;;
77409;SDS011;66481;51.332;22.804;2023-07-28T11:45:16;3.75;;;3.17;;
77409;SDS011;66481;51.332;22.804;2023-07-28T11:49:23;4.07;;;3.20;;
77409;SDS011;66481;51.332;22.804;2023-07-28T11:53:25;4.25;;;3.42;;
77409;SDS011;66481;51.332;22.804;2023-07-28T11:57:26;7.43;;;3.22;;
77409;SDS011;66481;51.332;22.804;2023-07-28T12:01:31;4.47;;;3.30;;
77409;SDS011;66481;51.332;22.804;2023-07-28T12:05:32;5.07;;;3.55;;
77409;SDS011;66481;51.332;22.804;2023-07-28T12:13:52;4.43;;;2.92;;
77409;SDS011;66481;51.332;22.804;2023-07-28T12:18:27;3.60;;;2.50;;
77409;SDS011;66481;51.332;22.804;2023-07-28T12:22:21;4.07;;;2.88;;
77409;SDS011;66481;51.332;22.804;2023-07-28T12:26:22;3.60;;;2.72;;
77409;SDS011;66481;51.332;22.804;2023-07-28T12:30:23;3.75;;;2.75;;
77409;SDS011;66481;51.332;22.804;2023-07-28T12:34:24;3.15;;;2.80;;
77409;SDS011;66481;51.332;22.804;2023-07-28T12:38:25;4.05;;;3.50;;
77409;SDS011;66481;51.332;22.804;2023-07-28T12:42:26;5.47;;;3.00;;
77409;SDS011;66481;51.332;22.804;2023-07-28T12:46:27;3.70;;;3.10;;
77409;SDS011;66481;51.332;22.804;2023-07-28T12:50:29;4.30;;;3.28;;
77409;SDS011;66481;51.332;22.804;2023-07-28T12:54:30;4.22;;;3.22;;
77409;SDS011;66481;51.332;22.804;2023-07-28T12:58:31;3.97;;;3.15;;
77409;SDS011;66481;51.332;22.804;2023-07-28T13:06:35;3.78;;;3.10;;
77409;SDS011;66481;51.332;22.804;2023-07-28T13:10:37;4.38;;;3.10;;
77409;SDS011;66481;51.332;22.804;2023-07-28T13:14:38;4.60;;;3.08;;
77409;SDS011;66481;51.332;22.804;2023-07-28T13:18:39;4.72;;;3.58;;
77409;SDS011;66481;51.332;22.804;2023-07-28T13:22:41;5.47;;;3.80;;
77409;SDS011;66481;51.332;22.804;2023-07-28T13:26:42;7.07;;;3.92;;
77409;SDS011;66481;51.332;22.804;2023-07-28T13:30:43;3.80;;;3.13;;
77409;SDS011;66481;51.332;22.804;2023-07-28T13:34:44;4.28;;;3.70;;
77409;SDS011;66481;51.332;22.804;2023-07-28T13:38:45;5.68;;;4.50;;
77409;SDS011;66481;51.332;22.804;2023-07-28T13:42:46;5.25;;;3.90;;
77409;SDS011;66481;51.332;22.804;2023-07-28T13:46:48;6.00;;;3.80;;
77409;SDS011;66481;51.332;22.804;2023-07-28T13:50:49;4.93;;;3.50;;
77409;SDS011;66481;51.332;22.804;2023-07-28T13:54:50;4.63;;;2.97;;
77409;SDS011;66481;51.332;22.804;2023-07-28T13:58:51;3.55;;;2.67;;
77409;SDS011;66481;51.332;22.804;2023-07-28T14:02:52;3.50;;;2.92;;
77409;SDS011;66481;51.332;22.804;2023-07-28T14:06:53;3.30;;;3.00;;
77409;SDS011;66481;51.332;22.804;2023-07-28T14:10:55;3.78;;;2.60;;
77409;SDS011;66481;51.332;22.804;2023-07-28T14:14:56;3.67;;;2.78;;
77409;SDS011;66481;51.332;22.804;2023-07-28T14:18:58;4.35;;;2.90;;
77409;SDS011;66481;51.332;22.804;2023-07-28T14:22:59;3.10;;;2.78;;
77409;SDS011;66481;51.332;22.804;2023-07-28T14:27:04;3.63;;;3.00;;
77409;SDS011;66481;51.332;22.804;2023-07-28T14:31:06;3.78;;;2.92;;
77409;SDS011;66481;51.332;22.804;2023-07-28T14:35:07;4.65;;;3.08;;
77409;SDS011;66481;51.332;22.804;2023-07-28T14:39:09;2.95;;;2.65;;
77409;SDS011;66481;51.332;22.804;2023-07-28T14:43:10;3.88;;;3.47;;
77409;SDS011;66481;51.332;22.804;2023-07-28T14:47:11;4.18;;;3.25;;
77409;SDS011;66481;51.332;22.804;2023-07-28T14:51:12;3.85;;;3.10;;
77409;SDS011;66481;51.332;22.804;2023-07-28T14:55:13;4.93;;;4.10;;
77409;SDS011;66481;51.332;22.804;2023-07-28T14:59:14;5.10;;;4.05;;
77409;SDS011;66481;51.332;22.804;2023-07-28T15:03:16;5.63;;;4.40;;
77409;SDS011;66481;51.332;22.804;2023-07-28T15:07:18;6.30;;;4.00;;
77409;SDS011;66481;51.332;22.804;2023-07-28T15:11:19;4.72;;;4.18;;
77409;SDS011;66481;51.332;22.804;2023-07-28T15:15:20;5.35;;;4.60;;
77409;SDS011;66481;51.332;22.804;2023-07-28T15:19:21;4.82;;;4.32;;
77409;SDS011;66481;51.332;22.804;2023-07-28T15:23:24;6.10;;;4.80;;
77409;SDS011;66481;51.332;22.804;2023-07-28T15:27:27;6.28;;;4.93;;
77409;SDS011;66481;51.332;22.804;2023-07-28T15:31:28;6.53;;;5.35;;
77409;SDS011;66481;51.332;22.804;2023-07-28T15:35:29;6.13;;;4.68;;
77409;SDS011;66481;51.332;22.804;2023-07-28T15:39:30;5.32;;;4.68;;
77409;SDS011;66481;51.332;22.804;2023-07-28T15:43:31;5.90;;;4.40;;
77409;SDS011;66481;51.332;22.804;2023-07-28T15:47:32;7.47;;;4.20;;
77409;SDS011;66481;51.332;22.804;2023-07-28T15:51:36;7.18;;;4.93;;
77409;SDS011;66481;51.332;22.804;2023-07-28T15:55:37;7.82;;;4.30;;
77409;SDS011;66481;51.332;22.804;2023-07-28T15:59:39;6.13;;;5.03;;
77409;SDS011;66481;51.332;22.804;2023-07-28T16:03:40;5.25;;;4.10;;
77409;SDS011;66481;51.332;22.804;2023-07-28T16:07:41;5.15;;;3.90;;
77409;SDS011;66481;51.332;22.804;2023-07-28T16:11:42;6.90;;;4.07;;
77409;SDS011;66481;51.332;22.804;2023-07-28T16:15:45;5.43;;;4.18;;
77409;SDS011;66481;51.332;22.804;2023-07-28T16:19:50;6.43;;;4.00;;
77409;SDS011;66481;51.332;22.804;2023-07-28T16:23:52;5.25;;;4.03;;
77409;SDS011;66481;51.332;22.804;2023-07-28T16:27:53;5.95;;;4.05;;
77409;SDS011;66481;51.332;22.804;2023-07-28T16:31:54;5.28;;;4.00;;
77409;SDS011;66481;51.332;22.804;2023-07-28T16:35:57;5.00;;;3.63;;
77409;SDS011;66481;51.332;22.804;2023-07-28T16:39:59;5.28;;;4.63;;
77409;SDS011;66481;51.332;22.804;2023-07-28T16:44:00;5.25;;;4.03;;
77409;SDS011;66481;51.332;22.804;2023-07-28T16:48:02;6.63;;;4.32;;
77409;SDS011;66481;51.332;22.804;2023-07-28T16:52:03;4.97;;;4.10;;
77409;SDS011;66481;51.332;22.804;2023-07-28T16:56:05;6.30;;;4.03;;
77409;SDS011;66481;51.332;22.804;2023-07-28T17:00:07;6.50;;;4.60;;
77409;SDS011;66481;51.332;22.804;2023-07-28T17:04:08;5.40;;;4.25;;
77409;SDS011;66481;51.332;22.804;2023-07-28T17:08:10;6.43;;;4.50;;
77409;SDS011;66481;51.332;22.804;2023-07-28T17:12:11;4.72;;;4.05;;
77409;SDS011;66481;51.332;22.804;2023-07-28T17:16:12;6.97;;;4.25;;
77409;SDS011;66481;51.332;22.804;2023-07-28T17:20:13;4.65;;;4.18;;
77409;SDS011;66481;51.332;22.804;2023-07-28T17:24:15;7.50;;;4.72;;
77409;SDS011;66481;51.332;22.804;2023-07-28T17:28:17;5.57;;;5.00;;
77409;SDS011;66481;51.332;22.804;2023-07-28T17:32:18;6.57;;;4.65;;
77409;SDS011;66481;51.332;22.804;2023-07-28T17:36:19;9.02;;;5.60;;
77409;SDS011;66481;51.332;22.804;2023-07-28T17:40:21;6.28;;;5.18;;
77409;SDS011;66481;51.332;22.804;2023-07-28T17:44:22;6.43;;;4.85;;
77409;SDS011;66481;51.332;22.804;2023-07-28T17:48:23;7.65;;;4.70;;
77409;SDS011;66481;51.332;22.804;2023-07-28T17:52:26;7.28;;;4.95;;
77409;SDS011;66481;51.332;22.804;2023-07-28T17:56:27;5.75;;;4.28;;
77409;SDS011;66481;51.332;22.804;2023-07-28T18:00:29;7.47;;;5.03;;
77409;SDS011;66481;51.332;22.804;2023-07-28T18:04:33;7.43;;;5.70;;
77409;SDS011;66481;51.332;22.804;2023-07-28T18:08:35;8.32;;;5.43;;
77409;SDS011;66481;51.332;22.804;2023-07-28T18:12:37;6.82;;;5.13;;
77409;SDS011;66481;51.332;22.804;2023-07-28T18:16:38;5.70;;;4.75;;
77409;SDS011;66481;51.332;22.804;2023-07-28T18:20:39;7.45;;;5.05;;
77409;SDS011;66481;51.332;22.804;2023-07-28T18:24:41;7.63;;;5.20;;
77409;SDS011;66481;51.332;22.804;2023-07-28T18:28:43;5.60;;;4.93;;
77409;SDS011;66481;51.332;22.804;2023-07-28T18:32:45;6.47;;;4.93;;
77409;SDS011;66481;51.332;22.804;2023-07-28T18:36:48;7.93;;;5.35;;
77409;SDS011;66481;51.332;22.804;2023-07-28T18:40:53;6.60;;;4.75;;
77409;SDS011;66481;51.332;22.804;2023-07-28T18:44:54;9.18;;;5.50;;
77409;SDS011;66481;51.332;22.804;2023-07-28T18:48:56;7.15;;;5.80;;
77409;SDS011;66481;51.332;22.804;2023-07-28T18:52:57;9.10;;;5.40;;
77409;SDS011;66481;51.332;22.804;2023-07-28T18:56:58;7.13;;;5.35;;
77409;SDS011;66481;51.332;22.804;2023-07-28T19:01:00;7.50;;;5.43;;
77409;SDS011;66481;51.332;22.804;2023-07-28T19:05:01;7.38;;;5.70;;
77409;SDS011;66481;51.332;22.804;2023-07-28T19:09:05;7.03;;;5.85;;
77409;SDS011;66481;51.332;22.804;2023-07-28T19:13:06;10.57;;;6.18;;
77409;SDS011;66481;51.332;22.804;2023-07-28T19:17:07;8.73;;;5.88;;
77409;SDS011;66481;51.332;22.804;2023-07-28T19:21:08;9.10;;;6.00;;
77409;SDS011;66481;51.332;22.804;2023-07-28T19:25:10;7.43;;;5.32;;
77409;SDS011;66481;51.332;22.804;2023-07-28T19:29:11;7.68;;;5.63;;
77409;SDS011;66481;51.332;22.804;2023-07-28T19:33:15;8.52;;;6.05;;
77409;SDS011;66481;51.332;22.804;2023-07-28T19:37:17;8.18;;;5.30;;
77409;SDS011;66481;51.332;22.804;2023-07-28T19:41:19;9.63;;;5.32;;
77409;SDS011;66481;51.332;22.804;2023-07-28T19:45:21;6.85;;;4.75;;
77409;SDS011;66481;51.332;22.804;2023-07-28T19:49:37;7.07;;;5.05;;
77409;SDS011;66481;51.332;22.804;2023-07-28T19:53:49;8.02;;;5.15;;
77409;SDS011;66481;51.332;22.804;2023-07-28T19:57:54;7.22;;;5.28;;
77409;SDS011;66481;51.332;22.804;2023-07-28T20:01:55;6.63;;;4.72;;
77409;SDS011;66481;51.332;22.804;2023-07-28T20:05:57;5.60;;;4.20;;
77409;SDS011;66481;51.332;22.804;2023-07-28T20:09:59;7.10;;;4.70;;
77409;SDS011;66481;51.332;22.804;2023-07-28T20:14:02;5.82;;;4.25;;
77409;SDS011;66481;51.332;22.804;2023-07-28T20:18:07;6.88;;;4.03;;
77409;SDS011;66481;51.332;22.804;2023-07-28T20:22:10;4.70;;;3.92;;
77409;SDS011;66481;51.332;22.804;2023-07-28T20:26:14;6.72;;;4.13;;
77409;SDS011;66481;51.332;22.804;2023-07-28T20:30:16;10.95;;;4.22;;
77409;SDS011;66481;51.332;22.804;2023-07-28T20:34:18;6.75;;;5.03;;
77409;SDS011;66481;51.332;22.804;2023-07-28T20:38:22;5.82;;;4.55;;
77409;SDS011;66481;51.332;22.804;2023-07-28T20:42:23;6.45;;;4.80;;
77409;SDS011;66481;51.332;22.804;2023-07-28T20:46:25;5.03;;;4.22;;
77409;SDS011;66481;51.332;22.804;2023-07-28T20:50:26;5.53;;;4.72;;
77409;SDS011;66481;51.332;22.804;2023-07-28T20:54:27;6.68;;;5.13;;
77409;SDS011;66481;51.332;22.804;2023-07-28T20:58:28;5.95;;;4.43;;
77409;SDS011;66481;51.332;22.804;2023-07-28T21:02:30;6.18;;;4.93;;
77409;SDS011;66481;51.332;22.804;2023-07-28T21:06:31;5.72;;;5.00;;
77409;SDS011;66481;51.332;22.804;2023-07-28T21:10:33;6.25;;;4.85;;
77409;SDS011;66481;51.332;22.804;2023-07-28T21:14:36;10.93;;;4.60;;
77409;SDS011;66481;51.332;22.804;2023-07-28T21:18:37;7.90;;;5.32;;
77409;SDS011;66481;51.332;22.804;2023-07-28T21:22:39;8.52;;;6.07;;
77409;SDS011;66481;51.332;22.804;2023-07-28T21:26:40;9.10;;;7.50;;
77409;SDS011;66481;51.332;22.804;2023-07-28T21:30:42;9.05;;;5.50;;
77409;SDS011;66481;51.332;22.804;2023-07-28T21:34:46;6.88;;;5.38;;
77409;SDS011;66481;51.332;22.804;2023-07-28T21:38:48;7.10;;;5.28;;
77409;SDS011;66481;51.332;22.804;2023-07-28T21:42:49;7.32;;;5.18;;
77409;SDS011;66481;51.332;22.804;2023-07-28T21:46:51;5.60;;;4.85;;
77409;SDS011;66481;51.332;22.804;2023-07-28T21:50:52;7.18;;;4.93;;
77409;SDS011;66481;51.332;22.804;2023-07-28T21:54:53;6.40;;;4.65;;
77409;SDS011;66481;51.332;22.804;2023-07-28T21:58:55;7.55;;;3.85;;
77409;SDS011;66481;51.332;22.804;2023-07-28T22:02:56;6.07;;;3.90;;
77409;SDS011;66481;51.332;22.804;2023-07-28T22:06:58;5.80;;;3.88;;
77409;SDS011;66481;51.332;22.804;2023-07-28T22:11:00;5.82;;;4.10;;
77409;SDS011;66481;51.332;22.804;2023-07-28T22:15:02;5.05;;;3.22;;
77409;SDS011;66481;51.332;22.804;2023-07-28T22:19:04;4.60;;;3.30;;
77409;SDS011;66481;51.332;22.804;2023-07-28T22:23:05;5.18;;;3.75;;
77409;SDS011;66481;51.332;22.804;2023-07-28T22:27:07;5.55;;;3.65;;
77409;SDS011;66481;51.332;22.804;2023-07-28T22:31:08;4.85;;;3.50;;
77409;SDS011;66481;51.332;22.804;2023-07-28T22:35:09;5.68;;;3.80;;
77409;SDS011;66481;51.332;22.804;2023-07-28T22:39:11;3.92;;;2.70;;
77409;SDS011;66481;51.332;22.804;2023-07-28T22:43:13;4.72;;;3.88;;
77409;SDS011;66481;51.332;22.804;2023-07-28T22:47:14;10.77;;;3.40;;
77409;SDS011;66481;51.332;22.804;2023-07-28T22:51:28;7.07;;;3.55;;
77409;SDS011;66481;51.332;22.804;2023-07-28T22:55:29;5.53;;;3.55;;
77409;SDS011;66481;51.332;22.804;2023-07-28T22:59:31;4.95;;;3.40;;
77409;SDS011;66481;51.332;22.804;2023-07-28T23:03:35;6.82;;;3.67;;
77409;SDS011;66481;51.332;22.804;2023-07-28T23:07:36;13.25;;;3.90;;
77409;SDS011;66481;51.332;22.804;2023-07-28T23:11:37;4.50;;;3.50;;
77409;SDS011;66481;51.332;22.804;2023-07-28T23:15:38;3.90;;;3.42;;
77409;SDS011;66481;51.332;22.804;2023-07-28T23:19:39;6.40;;;3.53;;
77409;SDS011;66481;51.332;22.804;2023-07-28T23:33:54;6.00;;;3.78;;
77409;SDS011;66481;51.332;22.804;2023-07-28T23:37:55;4.80;;;3.75;;
77409;SDS011;66481;51.332;22.804;2023-07-28T23:41:56;4.60;;;3.65;;
77409;SDS011;66481;51.332;22.804;2023-07-28T23:45:59;6.82;;;3.65;;
77409;SDS011;66481;51.332;22.804;2023-07-28T23:50:01;6.60;;;4.30;;
77409;SDS011;66481;51.332;22.804;2023-07-28T23:54:02;7.38;;;4.07;;
77409;SDS011;66481;51.332;22.804;2023-07-28T23:58:02;5.72;;;4.53;;
